sensor_id;sensor_type;location;lat;lon;timestamp;P1;durP1;ratioP1;P2;durP2;ratioP2
70970;SDS011;58632;51.718;19.446;2024-03-08T00:02:16;121.30;;;56.50;;
70970;SDS011;58632;51.718;19.446;2024-03-08T00:04:41;124.30;;;59.00;;
70970;SDS011;58632;51.718;19.446;2024-03-08T00:07:07;122.00;;;55.60;;
70970;SDS011;58632;51.718;19.446;2024-03-08T00:09:33;116.60;;;55.20;;
70970;SDS011;58632;51.718;19.446;2024-03-08T00:11:58;120.30;;;59.90;;
70970;SDS011;58632;51.718;19.446;2024-03-08T00:14:24;125.50;;;57.00;;
70970;SDS011;58632;51.718;19.446;2024-03-08T00:16:49;128.30;;;62.90;;
70970;SDS011;58632;51.718;19.446;2024-03-08T00:19:15;131.20;;;63.10;;
70970;SDS011;58632;51.718;19.446;2024-03-08T00:21:40;128.30;;;61.30;;
70970;SDS011;58632;51.718;19.446;2024-03-08T00:24:07;122.60;;;58.30;;
70970;SDS011;58632;51.718;19.446;2024-03-08T00:26:32;121.80;;;57.40;;
70970;SDS011;58632;51.718;19.446;2024-03-08T00:28:58;119.50;;;56.60;;
70970;SDS011;58632;51.718;19.446;2024-03-08T00:31:26;118.30;;;55.80;;
70970;SDS011;58632;51.718;19.446;2024-03-08T00:33:51;127.20;;;59.70;;
70970;SDS011;58632;51.718;19.446;2024-03-08T00:36:17;129.70;;;60.40;;
70970;SDS011;58632;51.718;19.446;2024-03-08T00:38:43;130.80;;;60.20;;
70970;SDS011;58632;51.718;19.446;2024-03-08T00:41:08;136.20;;;58.70;;
70970;SDS011;58632;51.718;19.446;2024-03-08T00:43:34;132.60;;;62.60;;
70970;SDS011;58632;51.718;19.446;2024-03-08T00:46:00;134.10;;;60.30;;
70970;SDS011;58632;51.718;19.446;2024-03-08T00:48:26;133.20;;;62.20;;
70970;SDS011;58632;51.718;19.446;2024-03-08T00:50:53;143.40;;;66.90;;
70970;SDS011;58632;51.718;19.446;2024-03-08T00:53:18;125.80;;;58.00;;
70970;SDS011;58632;51.718;19.446;2024-03-08T00:55:43;134.50;;;63.80;;
70970;SDS011;58632;51.718;19.446;2024-03-08T00:58:11;143.40;;;63.20;;
70970;SDS011;58632;51.718;19.446;2024-03-08T01:00:38;139.80;;;63.80;;
70970;SDS011;58632;51.718;19.446;2024-03-08T01:03:06;135.50;;;59.30;;
70970;SDS011;58632;51.718;19.446;2024-03-08T01:05:32;134.20;;;61.20;;
70970;SDS011;58632;51.718;19.446;2024-03-08T01:07:58;136.60;;;61.30;;
70970;SDS011;58632;51.718;19.446;2024-03-08T01:10:23;130.60;;;59.50;;
70970;SDS011;58632;51.718;19.446;2024-03-08T01:12:49;127.90;;;59.00;;
70970;SDS011;58632;51.718;19.446;2024-03-08T01:15:15;132.30;;;59.50;;
70970;SDS011;58632;51.718;19.446;2024-03-08T01:17:40;129.50;;;59.20;;
70970;SDS011;58632;51.718;19.446;2024-03-08T01:20:06;123.30;;;59.10;;
70970;SDS011;58632;51.718;19.446;2024-03-08T01:22:32;130.30;;;60.00;;
70970;SDS011;58632;51.718;19.446;2024-03-08T01:24:58;132.60;;;60.40;;
70970;SDS011;58632;51.718;19.446;2024-03-08T01:27:28;137.60;;;58.60;;
70970;SDS011;58632;51.718;19.446;2024-03-08T01:29:54;136.50;;;59.50;;
70970;SDS011;58632;51.718;19.446;2024-03-08T01:32:19;128.90;;;57.10;;
70970;SDS011;58632;51.718;19.446;2024-03-08T01:34:48;130.30;;;60.10;;
70970;SDS011;58632;51.718;19.446;2024-03-08T01:37:13;144.70;;;60.80;;
70970;SDS011;58632;51.718;19.446;2024-03-08T01:39:42;134.70;;;63.30;;
70970;SDS011;58632;51.718;19.446;2024-03-08T01:42:07;142.90;;;60.20;;
70970;SDS011;58632;51.718;19.446;2024-03-08T01:44:33;138.10;;;61.80;;
70970;SDS011;58632;51.718;19.446;2024-03-08T01:46:59;156.40;;;67.90;;
70970;SDS011;58632;51.718;19.446;2024-03-08T01:49:25;138.70;;;64.00;;
70970;SDS011;58632;51.718;19.446;2024-03-08T01:51:51;122.50;;;58.90;;
70970;SDS011;58632;51.718;19.446;2024-03-08T01:54:18;157.90;;;72.40;;
70970;SDS011;58632;51.718;19.446;2024-03-08T01:56:45;145.70;;;68.50;;
70970;SDS011;58632;51.718;19.446;2024-03-08T01:59:11;133.60;;;60.70;;
70970;SDS011;58632;51.718;19.446;2024-03-08T02:01:39;138.70;;;64.10;;
70970;SDS011;58632;51.718;19.446;2024-03-08T02:04:07;142.50;;;62.40;;
70970;SDS011;58632;51.718;19.446;2024-03-08T02:06:32;147.40;;;66.50;;
70970;SDS011;58632;51.718;19.446;2024-03-08T02:08:58;143.30;;;66.60;;
70970;SDS011;58632;51.718;19.446;2024-03-08T02:11:24;152.40;;;65.70;;
70970;SDS011;58632;51.718;19.446;2024-03-08T02:13:50;144.90;;;64.00;;
70970;SDS011;58632;51.718;19.446;2024-03-08T02:16:21;132.70;;;62.10;;
70970;SDS011;58632;51.718;19.446;2024-03-08T02:18:47;148.10;;;65.80;;
70970;SDS011;58632;51.718;19.446;2024-03-08T02:21:18;144.10;;;62.60;;
70970;SDS011;58632;51.718;19.446;2024-03-08T02:23:44;152.80;;;67.50;;
70970;SDS011;58632;51.718;19.446;2024-03-08T02:26:10;150.20;;;69.20;;
70970;SDS011;58632;51.718;19.446;2024-03-08T02:28:38;146.20;;;70.10;;
70970;SDS011;58632;51.718;19.446;2024-03-08T02:31:04;148.50;;;70.20;;
70970;SDS011;58632;51.718;19.446;2024-03-08T02:33:33;136.40;;;68.10;;
70970;SDS011;58632;51.718;19.446;2024-03-08T02:35:59;144.10;;;68.10;;
70970;SDS011;58632;51.718;19.446;2024-03-08T02:38:25;143.90;;;68.20;;
70970;SDS011;58632;51.718;19.446;2024-03-08T02:40:51;145.70;;;66.00;;
70970;SDS011;58632;51.718;19.446;2024-03-08T02:43:18;127.20;;;61.00;;
70970;SDS011;58632;51.718;19.446;2024-03-08T02:45:47;133.90;;;62.90;;
70970;SDS011;58632;51.718;19.446;2024-03-08T02:48:14;143.70;;;64.60;;
70970;SDS011;58632;51.718;19.446;2024-03-08T02:50:41;132.80;;;63.10;;
70970;SDS011;58632;51.718;19.446;2024-03-08T02:53:10;136.40;;;65.70;;
70970;SDS011;58632;51.718;19.446;2024-03-08T02:58:03;120.10;;;58.90;;
70970;SDS011;58632;51.718;19.446;2024-03-08T03:00:29;130.40;;;58.50;;
70970;SDS011;58632;51.718;19.446;2024-03-08T03:02:56;136.80;;;61.00;;
70970;SDS011;58632;51.718;19.446;2024-03-08T03:05:22;134.80;;;62.10;;
70970;SDS011;58632;51.718;19.446;2024-03-08T03:07:49;137.80;;;57.90;;
70970;SDS011;58632;51.718;19.446;2024-03-08T03:10:18;136.10;;;60.10;;
70970;SDS011;58632;51.718;19.446;2024-03-08T03:12:44;127.20;;;56.70;;
70970;SDS011;58632;51.718;19.446;2024-03-08T03:17:37;125.30;;;53.40;;
70970;SDS011;58632;51.718;19.446;2024-03-08T03:20:08;136.90;;;56.00;;
70970;SDS011;58632;51.718;19.446;2024-03-08T03:22:38;133.90;;;57.80;;
70970;SDS011;58632;51.718;19.446;2024-03-08T03:25:03;120.00;;;57.30;;
70970;SDS011;58632;51.718;19.446;2024-03-08T03:27:31;111.20;;;53.10;;
70970;SDS011;58632;51.718;19.446;2024-03-08T03:30:01;128.30;;;57.90;;
70970;SDS011;58632;51.718;19.446;2024-03-08T03:32:46;116.20;;;51.90;;
70970;SDS011;58632;51.718;19.446;2024-03-08T03:35:19;113.90;;;53.40;;
70970;SDS011;58632;51.718;19.446;2024-03-08T03:37:46;121.60;;;53.50;;
70970;SDS011;58632;51.718;19.446;2024-03-08T03:40:28;126.10;;;53.30;;
70970;SDS011;58632;51.718;19.446;2024-03-08T03:42:54;111.60;;;53.70;;
70970;SDS011;58632;51.718;19.446;2024-03-08T03:45:21;113.00;;;53.50;;
70970;SDS011;58632;51.718;19.446;2024-03-08T03:47:46;115.20;;;51.10;;
70970;SDS011;58632;51.718;19.446;2024-03-08T03:50:12;113.70;;;51.60;;
70970;SDS011;58632;51.718;19.446;2024-03-08T03:52:37;112.90;;;49.80;;
70970;SDS011;58632;51.718;19.446;2024-03-08T03:55:03;104.50;;;49.20;;
70970;SDS011;58632;51.718;19.446;2024-03-08T03:57:30;120.30;;;53.50;;
70970;SDS011;58632;51.718;19.446;2024-03-08T03:59:56;111.60;;;48.00;;
70970;SDS011;58632;51.718;19.446;2024-03-08T04:02:23;109.80;;;51.30;;
70970;SDS011;58632;51.718;19.446;2024-03-08T04:04:51;109.10;;;48.20;;
70970;SDS011;58632;51.718;19.446;2024-03-08T04:07:20;93.10;;;47.70;;
70970;SDS011;58632;51.718;19.446;2024-03-08T04:09:46;103.80;;;49.30;;
70970;SDS011;58632;51.718;19.446;2024-03-08T04:12:11;94.70;;;49.80;;
70970;SDS011;58632;51.718;19.446;2024-03-08T04:14:38;98.10;;;50.40;;
70970;SDS011;58632;51.718;19.446;2024-03-08T04:17:05;99.90;;;48.80;;
70970;SDS011;58632;51.718;19.446;2024-03-08T04:19:31;99.00;;;52.00;;
70970;SDS011;58632;51.718;19.446;2024-03-08T04:21:59;93.30;;;45.80;;
70970;SDS011;58632;51.718;19.446;2024-03-08T04:24:26;93.10;;;46.30;;
70970;SDS011;58632;51.718;19.446;2024-03-08T04:26:52;90.40;;;46.50;;
70970;SDS011;58632;51.718;19.446;2024-03-08T04:29:20;96.30;;;46.10;;
70970;SDS011;58632;51.718;19.446;2024-03-08T04:31:47;97.60;;;47.10;;
70970;SDS011;58632;51.718;19.446;2024-03-08T04:34:12;95.40;;;48.20;;
70970;SDS011;58632;51.718;19.446;2024-03-08T04:36:38;94.50;;;46.20;;
70970;SDS011;58632;51.718;19.446;2024-03-08T04:39:04;89.90;;;44.40;;
70970;SDS011;58632;51.718;19.446;2024-03-08T04:41:29;86.30;;;43.60;;
70970;SDS011;58632;51.718;19.446;2024-03-08T04:43:55;87.20;;;45.10;;
70970;SDS011;58632;51.718;19.446;2024-03-08T04:46:25;93.50;;;44.60;;
70970;SDS011;58632;51.718;19.446;2024-03-08T04:48:50;79.90;;;41.70;;
70970;SDS011;58632;51.718;19.446;2024-03-08T04:51:16;83.70;;;40.30;;
70970;SDS011;58632;51.718;19.446;2024-03-08T04:53:44;87.50;;;42.10;;
70970;SDS011;58632;51.718;19.446;2024-03-08T04:56:16;88.10;;;42.20;;
70970;SDS011;58632;51.718;19.446;2024-03-08T04:58:45;95.30;;;42.30;;
70970;SDS011;58632;51.718;19.446;2024-03-08T05:01:12;80.50;;;39.60;;
70970;SDS011;58632;51.718;19.446;2024-03-08T05:03:40;82.50;;;40.30;;
70970;SDS011;58632;51.718;19.446;2024-03-08T05:06:06;92.20;;;42.40;;
70970;SDS011;58632;51.718;19.446;2024-03-08T05:08:32;102.80;;;42.10;;
70970;SDS011;58632;51.718;19.446;2024-03-08T05:10:58;85.60;;;40.90;;
70970;SDS011;58632;51.718;19.446;2024-03-08T05:13:23;96.80;;;41.10;;
70970;SDS011;58632;51.718;19.446;2024-03-08T05:15:49;90.30;;;40.50;;
70970;SDS011;58632;51.718;19.446;2024-03-08T05:18:20;87.80;;;42.40;;
70970;SDS011;58632;51.718;19.446;2024-03-08T05:20:47;92.90;;;41.50;;
70970;SDS011;58632;51.718;19.446;2024-03-08T05:23:12;90.20;;;41.70;;
70970;SDS011;58632;51.718;19.446;2024-03-08T05:25:37;95.10;;;41.70;;
70970;SDS011;58632;51.718;19.446;2024-03-08T05:28:03;103.20;;;42.30;;
70970;SDS011;58632;51.718;19.446;2024-03-08T05:30:29;89.60;;;40.90;;
70970;SDS011;58632;51.718;19.446;2024-03-08T05:32:57;88.80;;;40.30;;
70970;SDS011;58632;51.718;19.446;2024-03-08T05:35:22;87.70;;;40.20;;
70970;SDS011;58632;51.718;19.446;2024-03-08T05:40:15;84.70;;;40.30;;
70970;SDS011;58632;51.718;19.446;2024-03-08T05:42:41;93.60;;;40.80;;
70970;SDS011;58632;51.718;19.446;2024-03-08T05:45:06;102.70;;;45.80;;
70970;SDS011;58632;51.718;19.446;2024-03-08T05:47:32;98.70;;;50.10;;
70970;SDS011;58632;51.718;19.446;2024-03-08T05:49:58;90.00;;;46.50;;
70970;SDS011;58632;51.718;19.446;2024-03-08T05:52:24;88.30;;;41.00;;
70970;SDS011;58632;51.718;19.446;2024-03-08T05:54:52;82.90;;;38.80;;
70970;SDS011;58632;51.718;19.446;2024-03-08T05:57:18;84.00;;;40.60;;
70970;SDS011;58632;51.718;19.446;2024-03-08T05:59:43;81.70;;;39.50;;
70970;SDS011;58632;51.718;19.446;2024-03-08T06:02:11;80.40;;;39.00;;
70970;SDS011;58632;51.718;19.446;2024-03-08T06:04:36;81.50;;;40.60;;
70970;SDS011;58632;51.718;19.446;2024-03-08T06:07:03;81.60;;;40.40;;
70970;SDS011;58632;51.718;19.446;2024-03-08T06:09:29;91.20;;;40.20;;
70970;SDS011;58632;51.718;19.446;2024-03-08T06:11:57;89.00;;;40.40;;
70970;SDS011;58632;51.718;19.446;2024-03-08T06:14:23;83.40;;;40.90;;
70970;SDS011;58632;51.718;19.446;2024-03-08T06:16:48;91.40;;;41.70;;
70970;SDS011;58632;51.718;19.446;2024-03-08T06:19:17;85.60;;;42.20;;
70970;SDS011;58632;51.718;19.446;2024-03-08T06:21:42;92.90;;;42.50;;
70970;SDS011;58632;51.718;19.446;2024-03-08T06:24:08;88.60;;;40.80;;
70970;SDS011;58632;51.718;19.446;2024-03-08T06:26:36;92.00;;;43.30;;
70970;SDS011;58632;51.718;19.446;2024-03-08T06:29:02;91.50;;;42.20;;
70970;SDS011;58632;51.718;19.446;2024-03-08T06:31:34;87.30;;;44.20;;
70970;SDS011;58632;51.718;19.446;2024-03-08T06:33:59;93.40;;;45.40;;
70970;SDS011;58632;51.718;19.446;2024-03-08T06:36:25;95.80;;;45.50;;
70970;SDS011;58632;51.718;19.446;2024-03-08T06:38:50;93.90;;;45.80;;
70970;SDS011;58632;51.718;19.446;2024-03-08T06:41:16;93.50;;;45.20;;
70970;SDS011;58632;51.718;19.446;2024-03-08T06:43:42;92.30;;;42.80;;
70970;SDS011;58632;51.718;19.446;2024-03-08T06:46:09;95.60;;;44.70;;
70970;SDS011;58632;51.718;19.446;2024-03-08T06:48:35;90.00;;;41.50;;
70970;SDS011;58632;51.718;19.446;2024-03-08T06:51:02;82.10;;;37.60;;
70970;SDS011;58632;51.718;19.446;2024-03-08T06:53:28;54.70;;;31.30;;
70970;SDS011;58632;51.718;19.446;2024-03-08T06:55:53;56.30;;;27.80;;
70970;SDS011;58632;51.718;19.446;2024-03-08T06:58:19;58.30;;;27.10;;
70970;SDS011;58632;51.718;19.446;2024-03-08T07:00:45;37.60;;;19.40;;
70970;SDS011;58632;51.718;19.446;2024-03-08T07:03:11;46.60;;;24.60;;
70970;SDS011;58632;51.718;19.446;2024-03-08T07:05:42;29.40;;;19.30;;
70970;SDS011;58632;51.718;19.446;2024-03-08T07:08:10;38.20;;;20.40;;
70970;SDS011;58632;51.718;19.446;2024-03-08T07:10:37;30.30;;;20.10;;
70970;SDS011;58632;51.718;19.446;2024-03-08T07:13:06;30.90;;;17.30;;
70970;SDS011;58632;51.718;19.446;2024-03-08T07:15:31;27.80;;;17.70;;
70970;SDS011;58632;51.718;19.446;2024-03-08T07:17:57;29.10;;;17.60;;
70970;SDS011;58632;51.718;19.446;2024-03-08T07:20:25;26.90;;;15.80;;
70970;SDS011;58632;51.718;19.446;2024-03-08T07:22:50;29.30;;;17.60;;
70970;SDS011;58632;51.718;19.446;2024-03-08T07:25:16;32.60;;;16.20;;
70970;SDS011;58632;51.718;19.446;2024-03-08T07:27:50;25.90;;;15.30;;
70970;SDS011;58632;51.718;19.446;2024-03-08T07:30:22;29.00;;;16.60;;
70970;SDS011;58632;51.718;19.446;2024-03-08T07:33:08;26.30;;;16.60;;
70970;SDS011;58632;51.718;19.446;2024-03-08T07:35:37;25.30;;;15.20;;
70970;SDS011;58632;51.718;19.446;2024-03-08T07:38:06;27.40;;;14.90;;
70970;SDS011;58632;51.718;19.446;2024-03-08T07:40:37;32.00;;;17.80;;
70970;SDS011;58632;51.718;19.446;2024-03-08T07:43:06;23.30;;;14.10;;
70970;SDS011;58632;51.718;19.446;2024-03-08T07:45:32;23.50;;;14.80;;
70970;SDS011;58632;51.718;19.446;2024-03-08T07:47:57;23.00;;;14.70;;
70970;SDS011;58632;51.718;19.446;2024-03-08T07:50:23;18.70;;;11.70;;
70970;SDS011;58632;51.718;19.446;2024-03-08T07:52:49;25.60;;;12.90;;
70970;SDS011;58632;51.718;19.446;2024-03-08T07:55:14;28.30;;;18.20;;
70970;SDS011;58632;51.718;19.446;2024-03-08T07:57:40;27.20;;;16.90;;
70970;SDS011;58632;51.718;19.446;2024-03-08T08:00:08;23.70;;;14.60;;
70970;SDS011;58632;51.718;19.446;2024-03-08T08:02:36;29.20;;;17.70;;
70970;SDS011;58632;51.718;19.446;2024-03-08T08:05:01;31.10;;;17.30;;
70970;SDS011;58632;51.718;19.446;2024-03-08T08:07:30;35.00;;;19.00;;
70970;SDS011;58632;51.718;19.446;2024-03-08T08:09:56;27.70;;;16.70;;
70970;SDS011;58632;51.718;19.446;2024-03-08T08:12:21;25.50;;;16.40;;
70970;SDS011;58632;51.718;19.446;2024-03-08T08:14:47;26.00;;;17.50;;
70970;SDS011;58632;51.718;19.446;2024-03-08T08:17:12;25.30;;;16.80;;
70970;SDS011;58632;51.718;19.446;2024-03-08T08:19:40;24.50;;;16.20;;
70970;SDS011;58632;51.718;19.446;2024-03-08T08:22:06;23.40;;;14.70;;
70970;SDS011;58632;51.718;19.446;2024-03-08T08:24:34;28.10;;;17.80;;
70970;SDS011;58632;51.718;19.446;2024-03-08T08:27:02;31.50;;;18.40;;
70970;SDS011;58632;51.718;19.446;2024-03-08T08:29:27;23.90;;;14.00;;
70970;SDS011;58632;51.718;19.446;2024-03-08T08:31:53;23.90;;;15.60;;
70970;SDS011;58632;51.718;19.446;2024-03-08T08:34:19;23.00;;;15.40;;
70970;SDS011;58632;51.718;19.446;2024-03-08T08:36:47;25.30;;;15.10;;
70970;SDS011;58632;51.718;19.446;2024-03-08T08:39:12;24.90;;;14.50;;
70970;SDS011;58632;51.718;19.446;2024-03-08T08:41:39;20.20;;;13.40;;
70970;SDS011;58632;51.718;19.446;2024-03-08T08:44:06;21.30;;;12.60;;
70970;SDS011;58632;51.718;19.446;2024-03-08T08:46:35;26.70;;;15.40;;
70970;SDS011;58632;51.718;19.446;2024-03-08T08:49:03;24.40;;;14.10;;
70970;SDS011;58632;51.718;19.446;2024-03-08T08:51:29;18.60;;;12.60;;
70970;SDS011;58632;51.718;19.446;2024-03-08T08:53:55;19.40;;;11.40;;
70970;SDS011;58632;51.718;19.446;2024-03-08T08:56:21;20.60;;;12.90;;
70970;SDS011;58632;51.718;19.446;2024-03-08T08:58:47;19.40;;;13.60;;
70970;SDS011;58632;51.718;19.446;2024-03-08T09:03:39;21.20;;;12.10;;
70970;SDS011;58632;51.718;19.446;2024-03-08T09:06:06;22.10;;;12.20;;
70970;SDS011;58632;51.718;19.446;2024-03-08T09:08:38;18.60;;;11.10;;
70970;SDS011;58632;51.718;19.446;2024-03-08T09:11:04;20.30;;;13.80;;
70970;SDS011;58632;51.718;19.446;2024-03-08T09:13:30;21.60;;;14.90;;
70970;SDS011;58632;51.718;19.446;2024-03-08T09:15:56;21.80;;;13.40;;
70970;SDS011;58632;51.718;19.446;2024-03-08T09:18:22;17.20;;;10.70;;
70970;SDS011;58632;51.718;19.446;2024-03-08T09:20:49;18.90;;;12.50;;
70970;SDS011;58632;51.718;19.446;2024-03-08T09:23:22;18.70;;;11.60;;
70970;SDS011;58632;51.718;19.446;2024-03-08T09:25:47;20.00;;;12.00;;
70970;SDS011;58632;51.718;19.446;2024-03-08T09:28:13;17.80;;;11.50;;
70970;SDS011;58632;51.718;19.446;2024-03-08T09:30:39;19.20;;;12.80;;
70970;SDS011;58632;51.718;19.446;2024-03-08T09:33:05;21.30;;;11.70;;
70970;SDS011;58632;51.718;19.446;2024-03-08T09:35:31;18.70;;;10.80;;
70970;SDS011;58632;51.718;19.446;2024-03-08T09:37:57;22.20;;;13.00;;
70970;SDS011;58632;51.718;19.446;2024-03-08T09:40:22;18.10;;;10.60;;
70970;SDS011;58632;51.718;19.446;2024-03-08T09:45:14;16.50;;;10.90;;
70970;SDS011;58632;51.718;19.446;2024-03-08T09:47:42;17.00;;;11.20;;
70970;SDS011;58632;51.718;19.446;2024-03-08T09:52:46;17.90;;;10.90;;
70970;SDS011;58632;51.718;19.446;2024-03-08T09:55:13;20.70;;;10.70;;
70970;SDS011;58632;51.718;19.446;2024-03-08T09:57:42;15.90;;;10.00;;
70970;SDS011;58632;51.718;19.446;2024-03-08T10:00:27;15.10;;;10.30;;
70970;SDS011;58632;51.718;19.446;2024-03-08T10:02:53;16.40;;;10.00;;
70970;SDS011;58632;51.718;19.446;2024-03-08T10:05:19;13.10;;;8.20;;
70970;SDS011;58632;51.718;19.446;2024-03-08T10:07:45;17.60;;;9.90;;
70970;SDS011;58632;51.718;19.446;2024-03-08T10:10:10;16.40;;;10.00;;
70970;SDS011;58632;51.718;19.446;2024-03-08T10:12:37;16.40;;;9.60;;
70970;SDS011;58632;51.718;19.446;2024-03-08T10:15:07;17.30;;;10.10;;
70970;SDS011;58632;51.718;19.446;2024-03-08T10:17:36;11.60;;;7.20;;
70970;SDS011;58632;51.718;19.446;2024-03-08T10:20:02;12.60;;;7.80;;
70970;SDS011;58632;51.718;19.446;2024-03-08T10:22:28;12.10;;;7.60;;
70970;SDS011;58632;51.718;19.446;2024-03-08T10:24:54;12.00;;;7.90;;
70970;SDS011;58632;51.718;19.446;2024-03-08T10:27:20;11.20;;;6.90;;
70970;SDS011;58632;51.718;19.446;2024-03-08T10:29:47;13.20;;;8.20;;
70970;SDS011;58632;51.718;19.446;2024-03-08T10:32:13;14.00;;;9.30;;
70970;SDS011;58632;51.718;19.446;2024-03-08T10:34:39;11.40;;;7.50;;
70970;SDS011;58632;51.718;19.446;2024-03-08T10:37:04;12.70;;;7.50;;
70970;SDS011;58632;51.718;19.446;2024-03-08T10:39:34;10.40;;;7.20;;
70970;SDS011;58632;51.718;19.446;2024-03-08T10:42:02;11.10;;;7.60;;
70970;SDS011;58632;51.718;19.446;2024-03-08T10:44:40;15.10;;;8.80;;
70970;SDS011;58632;51.718;19.446;2024-03-08T10:47:19;14.60;;;9.30;;
70970;SDS011;58632;51.718;19.446;2024-03-08T10:49:55;13.70;;;8.30;;
70970;SDS011;58632;51.718;19.446;2024-03-08T10:52:22;10.70;;;6.70;;
70970;SDS011;58632;51.718;19.446;2024-03-08T10:54:49;14.10;;;9.30;;
70970;SDS011;58632;51.718;19.446;2024-03-08T10:57:18;14.40;;;9.30;;
70970;SDS011;58632;51.718;19.446;2024-03-08T10:59:46;15.40;;;9.20;;
70970;SDS011;58632;51.718;19.446;2024-03-08T11:02:17;14.50;;;9.30;;
70970;SDS011;58632;51.718;19.446;2024-03-08T11:04:47;14.60;;;9.50;;
70970;SDS011;58632;51.718;19.446;2024-03-08T11:07:16;15.20;;;9.80;;
70970;SDS011;58632;51.718;19.446;2024-03-08T11:09:46;14.20;;;9.20;;
70970;SDS011;58632;51.718;19.446;2024-03-08T11:12:23;13.40;;;8.60;;
70970;SDS011;58632;51.718;19.446;2024-03-08T11:15:02;15.90;;;9.10;;
70970;SDS011;58632;51.718;19.446;2024-03-08T11:20:14;13.00;;;8.90;;
70970;SDS011;58632;51.718;19.446;2024-03-08T11:25:13;16.70;;;10.40;;
70970;SDS011;58632;51.718;19.446;2024-03-08T11:28:06;14.20;;;9.30;;
70970;SDS011;58632;51.718;19.446;2024-03-08T11:30:46;11.80;;;7.60;;
70970;SDS011;58632;51.718;19.446;2024-03-08T11:33:34;20.10;;;10.40;;
70970;SDS011;58632;51.718;19.446;2024-03-08T11:38:40;16.00;;;9.30;;
70970;SDS011;58632;51.718;19.446;2024-03-08T11:41:06;16.10;;;10.80;;
70970;SDS011;58632;51.718;19.446;2024-03-08T11:43:36;15.40;;;10.10;;
70970;SDS011;58632;51.718;19.446;2024-03-08T11:46:08;18.80;;;10.20;;
70970;SDS011;58632;51.718;19.446;2024-03-08T11:48:34;15.40;;;10.20;;
70970;SDS011;58632;51.718;19.446;2024-03-08T11:51:03;17.90;;;10.30;;
70970;SDS011;58632;51.718;19.446;2024-03-08T11:53:30;18.90;;;11.30;;
70970;SDS011;58632;51.718;19.446;2024-03-08T11:56:09;17.00;;;11.20;;
70970;SDS011;58632;51.718;19.446;2024-03-08T11:58:39;17.50;;;10.50;;
70970;SDS011;58632;51.718;19.446;2024-03-08T12:01:06;17.10;;;9.70;;
70970;SDS011;58632;51.718;19.446;2024-03-08T12:03:34;19.70;;;11.30;;
70970;SDS011;58632;51.718;19.446;2024-03-08T12:06:00;15.90;;;11.10;;
70970;SDS011;58632;51.718;19.446;2024-03-08T12:08:27;18.10;;;10.80;;
70970;SDS011;58632;51.718;19.446;2024-03-08T12:10:53;18.60;;;10.70;;
70970;SDS011;58632;51.718;19.446;2024-03-08T12:13:27;16.70;;;10.40;;
70970;SDS011;58632;51.718;19.446;2024-03-08T12:15:57;17.10;;;11.10;;
70970;SDS011;58632;51.718;19.446;2024-03-08T12:18:27;17.60;;;10.80;;
70970;SDS011;58632;51.718;19.446;2024-03-08T12:23:45;18.70;;;11.10;;
70970;SDS011;58632;51.718;19.446;2024-03-08T12:26:23;16.10;;;11.00;;
70970;SDS011;58632;51.718;19.446;2024-03-08T12:28:51;16.30;;;10.70;;
70970;SDS011;58632;51.718;19.446;2024-03-08T12:31:17;18.20;;;10.90;;
70970;SDS011;58632;51.718;19.446;2024-03-08T12:33:54;20.30;;;12.70;;
70970;SDS011;58632;51.718;19.446;2024-03-08T12:36:24;21.30;;;13.00;;
70970;SDS011;58632;51.718;19.446;2024-03-08T12:38:51;17.20;;;12.40;;
70970;SDS011;58632;51.718;19.446;2024-03-08T12:41:19;16.80;;;11.60;;
70970;SDS011;58632;51.718;19.446;2024-03-08T12:43:46;18.20;;;11.00;;
70970;SDS011;58632;51.718;19.446;2024-03-08T12:46:17;17.30;;;11.00;;
70970;SDS011;58632;51.718;19.446;2024-03-08T12:48:45;16.70;;;11.20;;
70970;SDS011;58632;51.718;19.446;2024-03-08T12:51:14;18.00;;;11.20;;
70970;SDS011;58632;51.718;19.446;2024-03-08T12:53:41;22.70;;;11.40;;
70970;SDS011;58632;51.718;19.446;2024-03-08T12:56:11;16.60;;;10.20;;
70970;SDS011;58632;51.718;19.446;2024-03-08T12:58:37;18.70;;;12.10;;
70970;SDS011;58632;51.718;19.446;2024-03-08T13:03:35;17.70;;;11.40;;
70970;SDS011;58632;51.718;19.446;2024-03-08T13:06:01;19.60;;;12.30;;
70970;SDS011;58632;51.718;19.446;2024-03-08T13:08:28;19.10;;;11.50;;
70970;SDS011;58632;51.718;19.446;2024-03-08T13:10:56;17.90;;;11.80;;
70970;SDS011;58632;51.718;19.446;2024-03-08T13:13:22;17.90;;;11.20;;
70970;SDS011;58632;51.718;19.446;2024-03-08T13:15:48;16.80;;;11.80;;
70970;SDS011;58632;51.718;19.446;2024-03-08T13:18:16;20.80;;;11.90;;
70970;SDS011;58632;51.718;19.446;2024-03-08T13:20:42;15.20;;;10.40;;
70970;SDS011;58632;51.718;19.446;2024-03-08T13:23:14;15.40;;;9.80;;
70970;SDS011;58632;51.718;19.446;2024-03-08T13:25:40;19.80;;;11.00;;
70970;SDS011;58632;51.718;19.446;2024-03-08T13:28:06;18.90;;;11.90;;
70970;SDS011;58632;51.718;19.446;2024-03-08T13:30:31;22.60;;;11.70;;
70970;SDS011;58632;51.718;19.446;2024-03-08T13:32:57;16.10;;;11.30;;
70970;SDS011;58632;51.718;19.446;2024-03-08T13:35:23;19.20;;;12.20;;
70970;SDS011;58632;51.718;19.446;2024-03-08T13:37:52;20.50;;;11.10;;
70970;SDS011;58632;51.718;19.446;2024-03-08T13:40:18;16.70;;;10.60;;
70970;SDS011;58632;51.718;19.446;2024-03-08T13:42:50;18.30;;;11.20;;
70970;SDS011;58632;51.718;19.446;2024-03-08T13:45:16;17.90;;;10.90;;
70970;SDS011;58632;51.718;19.446;2024-03-08T13:47:47;17.80;;;10.50;;
70970;SDS011;58632;51.718;19.446;2024-03-08T13:52:46;13.30;;;9.00;;
70970;SDS011;58632;51.718;19.446;2024-03-08T13:55:12;15.80;;;10.40;;
70970;SDS011;58632;51.718;19.446;2024-03-08T13:57:40;14.10;;;9.90;;
70970;SDS011;58632;51.718;19.446;2024-03-08T14:00:07;14.60;;;9.70;;
70970;SDS011;58632;51.718;19.446;2024-03-08T14:02:33;20.90;;;10.30;;
70970;SDS011;58632;51.718;19.446;2024-03-08T14:04:59;15.40;;;10.20;;
70970;SDS011;58632;51.718;19.446;2024-03-08T14:07:26;15.90;;;9.80;;
70970;SDS011;58632;51.718;19.446;2024-03-08T14:09:54;17.30;;;10.20;;
70970;SDS011;58632;51.718;19.446;2024-03-08T14:12:20;14.40;;;9.90;;
70970;SDS011;58632;51.718;19.446;2024-03-08T14:14:45;17.20;;;10.30;;
70970;SDS011;58632;51.718;19.446;2024-03-08T14:17:11;20.80;;;9.70;;
70970;SDS011;58632;51.718;19.446;2024-03-08T14:19:42;16.60;;;10.60;;
70970;SDS011;58632;51.718;19.446;2024-03-08T14:22:07;18.70;;;10.70;;
70970;SDS011;58632;51.718;19.446;2024-03-08T14:24:36;14.60;;;10.30;;
70970;SDS011;58632;51.718;19.446;2024-03-08T14:27:02;19.50;;;10.20;;
70970;SDS011;58632;51.718;19.446;2024-03-08T14:29:28;14.00;;;9.20;;
70970;SDS011;58632;51.718;19.446;2024-03-08T14:31:57;18.60;;;11.20;;
70970;SDS011;58632;51.718;19.446;2024-03-08T14:34:24;16.80;;;10.70;;
70970;SDS011;58632;51.718;19.446;2024-03-08T14:36:54;16.70;;;10.00;;
70970;SDS011;58632;51.718;19.446;2024-03-08T14:39:20;15.80;;;11.00;;